^^
Datos históricos de la estación: Murcia-Puente Tocinos
Diario Informe para Julio 31, 2019 Unidades:  Ambas    Ingés   Métrico
Diario Semanal Mensual Anual
  Máxima: Mínima: Promedio:
Temperatura: 80.8 °F /  27.1 °C 64 °F /  17.8 °C 72.1 °F /  22.3 °C
Punto de rocio: 59.4 °F /  15.2 °C 55.2 °F /  12.9 °C 57.2 °F /  14 °C
Humedad: 78% 43% 61%
Velocidad viento: 12.5mph /  20.1km/h - 5.1mph /  8.2km/h
Racha viento: 24.2mph /  38.9km/h - -
Viento- - SO
Presión: 30.1 in /  1020.7 hPa 30.1 in /  1018.0 hPa -
Precipitación: 0 in /  0.0 mm    
 
 
Tabla de datos para Julio 31, 2019
Hora Temperatura Punto de rocio Presión Viento Velocidad viento Racha viento Humedad Intensidad lluvia(por hora) Nubes
00:04 68 °F /  20 °C 59.4 °F /  15.2 °C 30.1in /  1020.4hPa SO 3.7mph /  5.9km/h 6mph /  9.7km/h 74% 0in /  0.0mm
00:09 68 °F /  20 °C 59.4 °F /  15.2 °C 30.1in /  1020.4hPa SO 3.6mph /  5.8km/h 6mph /  9.7km/h 74% 0in /  0.0mm
00:14 68 °F /  20 °C 59.4 °F /  15.2 °C 30.1in /  1020.3hPa SO 3.9mph /  6.3km/h 7mph /  11.3km/h 73.9% 0in /  0.0mm
00:19 67.8 °F /  19.9 °C 59.2 °F /  15.1 °C 30.1in /  1020.3hPa SO 4mph /  6.5km/h 5.2mph /  8.4km/h 74% 0in /  0.0mm
00:24 67.8 °F /  19.9 °C 59.2 °F /  15.1 °C 30.1in /  1020.4hPa SO 4mph /  6.5km/h 5mph /  8km/h 74% 0in /  0.0mm
00:29 67.8 °F /  19.9 °C 59.2 °F /  15.1 °C 30.1in /  1020.4hPa SSO 4mph /  6.5km/h 5mph /  8km/h 74% 0in /  0.0mm
00:34 67.8 °F /  19.9 °C 59.2 °F /  15.1 °C 30.1in /  1020.4hPa SSO 3.2mph /  5.1km/h 5mph /  8km/h 74% 0in /  0.0mm
00:39 67.6 °F /  19.8 °C 59.2 °F /  15.1 °C 30.1in /  1020.4hPa SSO 2.9mph /  4.7km/h 5mph /  8km/h 73.9% 0in /  0.0mm
00:44 67.6 °F /  19.8 °C 59.2 °F /  15.1 °C 30.1in /  1020.3hPa Sur 2.9mph /  4.7km/h 5.8mph /  9.3km/h 74% 0in /  0.0mm
00:49 67.6 °F /  19.8 °C 58.8 °F /  14.9 °C 30.1in /  1020.3hPa Sur 2.9mph /  4.7km/h 6mph /  9.7km/h 73.5% 0in /  0.0mm
00:54 67.6 °F /  19.8 °C 59 °F /  15 °C 30.1in /  1020.3hPa Sur 3.7mph /  6km/h 6.9mph /  11.1km/h 73.8% 0in /  0.0mm
00:59 67.6 °F /  19.8 °C 59.2 °F /  15.1 °C 30.1in /  1020.2hPa Sur 4mph /  6.5km/h 7mph /  11.3km/h 74% 0in /  0.0mm
01:04 67.5 °F /  19.7 °C 58.8 °F /  14.9 °C 30.1in /  1020.2hPa Sur 3.2mph /  5.1km/h 5mph /  8km/h 74% 0in /  0.0mm
01:09 67.5 °F /  19.7 °C 59 °F /  15 °C 30.1in /  1020.2hPa SSE 2.9mph /  4.7km/h 3.5mph /  5.6km/h 74.4% 0in /  0.0mm
01:14 67.3 °F /  19.6 °C 59 °F /  15 °C 30.1in /  1020.1hPa SSE 2.2mph /  3.5km/h 4.7mph /  7.6km/h 75% 0in /  0.0mm
01:19 66.9 °F /  19.4 °C 59 °F /  15 °C 30.1in /  1020.1hPa SSE 2mph /  3.2km/h 5mph /  8km/h 75.6% 0in /  0.0mm
01:24 66.7 °F /  19.3 °C 58.8 °F /  14.9 °C 30.1in /  1020.1hPa SSE 2.9mph /  4.6km/h 5mph /  8km/h 76% 0in /  0.0mm
01:29 66.6 °F /  19.2 °C 58.8 °F /  14.9 °C 30.1in /  1020.0hPa SSE 3.1mph /  5km/h 5.8mph /  9.3km/h 76% 0in /  0.0mm
01:34 66.6 °F /  19.2 °C 58.8 °F /  14.9 °C 30.1in /  1020.0hPa SSE 3.5mph /  5.6km/h 6mph /  9.7km/h 76% 0in /  0.0mm
01:39 66.4 °F /  19.1 °C 58.6 °F /  14.8 °C 30.1in /  1020.0hPa SSE 3.6mph /  5.8km/h 6mph /  9.7km/h 76% 0in /  0.0mm
01:44 66.4 °F /  19.1 °C 58.6 °F /  14.8 °C 30.1in /  1019.9hPa SSE 3.9mph /  6.3km/h 6.2mph /  10km/h 76% 0in /  0.0mm
01:49 66 °F /  18.9 °C 58.3 °F /  14.6 °C 30.1in /  1019.9hPa SSE 4mph /  6.5km/h 7.4mph /  11.9km/h 76% 0in /  0.0mm
01:54 66 °F /  18.9 °C 58.1 °F /  14.5 °C 30.1in /  1019.9hPa Sur 4.2mph /  6.8km/h 7mph /  11.3km/h 76% 0in /  0.0mm
01:59 65.8 °F /  18.8 °C 58.3 °F /  14.6 °C 30.1in /  1019.9hPa Sur 4.3mph /  6.9km/h 6mph /  9.7km/h 76.7% 0in /  0.0mm
02:04 65.8 °F /  18.8 °C 58.5 °F /  14.7 °C 30.1in /  1019.9hPa Sur 3.7mph /  6km/h 5.2mph /  8.4km/h 77% 0in /  0.0mm
02:09 65.8 °F /  18.8 °C 58.3 °F /  14.6 °C 30.1in /  1019.9hPa Sur 3.6mph /  5.8km/h 5.9mph /  9.5km/h 76.6% 0in /  0.0mm
02:14 66 °F /  18.9 °C 58.3 °F /  14.6 °C 30.1in /  1019.8hPa Sur 3.6mph /  5.8km/h 6mph /  9.7km/h 76% 0in /  0.0mm
02:19 66 °F /  18.9 °C 58.3 °F /  14.6 °C 30.1in /  1019.8hPa Sur 3.6mph /  5.8km/h 5.2mph /  8.4km/h 76% 0in /  0.0mm
02:24 66 °F /  18.9 °C 58.3 °F /  14.6 °C 30.1in /  1019.8hPa SSE 3.6mph /  5.8km/h 5.9mph /  9.5km/h 76% 0in /  0.0mm
02:29 66 °F /  18.9 °C 58.3 °F /  14.6 °C 30.1in /  1019.7hPa Sur 3.6mph /  5.8km/h 6mph /  9.7km/h 76% 0in /  0.0mm
02:34 66 °F /  18.9 °C 58.1 °F /  14.5 °C 30.1in /  1019.7hPa SSO 3.2mph /  5.2km/h 5.2mph /  8.4km/h 75.8% 0in /  0.0mm
02:39 66 °F /  18.9 °C 57.9 °F /  14.4 °C 30.1in /  1019.8hPa SSO 3.1mph /  5km/h 6.9mph /  11.1km/h 75% 0in /  0.0mm
02:44 66 °F /  18.9 °C 57.9 °F /  14.4 °C 30.1in /  1019.8hPa SO 3.8mph /  6.1km/h 7mph /  11.3km/h 75% 0in /  0.0mm
02:49 66.2 °F /  19 °C 57.9 °F /  14.4 °C 30.1in /  1019.8hPa SSO 4mph /  6.5km/h 6mph /  9.7km/h 75% 0in /  0.0mm
02:54 66.2 °F /  19 °C 57.9 °F /  14.4 °C 30.1in /  1019.8hPa SSO 3.4mph /  5.4km/h 5.8mph /  9.3km/h 75% 0in /  0.0mm
02:59 66.2 °F /  19 °C 57.9 °F /  14.4 °C 30.1in /  1019.8hPa SO 3.1mph /  5km/h 6mph /  9.7km/h 75% 0in /  0.0mm
03:04 66.2 °F /  19 °C 57.9 °F /  14.4 °C 30.1in /  1019.8hPa ONO 2.9mph /  4.7km/h 6mph /  9.7km/h 75% 0in /  0.0mm
03:09 66 °F /  18.9 °C 57.9 °F /  14.4 °C 30.1in /  1019.9hPa NO 2.9mph /  4.7km/h 6mph /  9.7km/h 75.3% 0in /  0.0mm
03:14 65.7 °F /  18.7 °C 58.1 °F /  14.5 °C 30.1in /  1019.9hPa Oeste 2.5mph /  4km/h 5mph /  8km/h 76.5% 0in /  0.0mm
03:19 65.1 °F /  18.4 °C 58.1 °F /  14.5 °C 30.1in /  1019.9hPa SO 2.4mph /  3.9km/h 5mph /  8km/h 77.7% 0in /  0.0mm
03:24 65.1 °F /  18.4 °C 58.1 °F /  14.5 °C 30.1in /  1019.9hPa OSO 2.9mph /  4.7km/h 5.4mph /  8.7km/h 78% 0in /  0.0mm
03:29 64.9 °F /  18.3 °C 57.9 °F /  14.4 °C 30.1in /  1019.9hPa SO 3.1mph /  5km/h 6mph /  9.7km/h 78% 0in /  0.0mm
03:34 65.1 °F /  18.4 °C 58.1 °F /  14.5 °C 30.1in /  1019.9hPa SSO 3.5mph /  5.6km/h 6mph /  9.7km/h 78% 0in /  0.0mm
03:39 65.1 °F /  18.4 °C 58.1 °F /  14.5 °C 30.1in /  1019.9hPa Sur 3.6mph /  5.8km/h 6.9mph /  11.1km/h 78% 0in /  0.0mm
03:44 65.1 °F /  18.4 °C 57.9 °F /  14.4 °C 30.1in /  1019.7hPa SSE 3.9mph /  6.3km/h 7mph /  11.3km/h 77.7% 0in /  0.0mm
03:49 65.1 °F /  18.4 °C 58.1 °F /  14.5 °C 30.1in /  1019.7hPa Sur 4mph /  6.5km/h 8.1mph /  13km/h 78% 0in /  0.0mm
03:54 64.9 °F /  18.3 °C 57.9 °F /  14.4 °C 30.1in /  1019.7hPa Sur 4.9mph /  7.9km/h 8.1mph /  13km/h 78% 0in /  0.0mm
03:59 64.9 °F /  18.3 °C 57.9 °F /  14.4 °C 30.1in /  1019.6hPa Sur 5.2mph /  8.4km/h 8.5mph /  13.7km/h 78% 0in /  0.0mm
04:04 64.9 °F /  18.3 °C 57.9 °F /  14.4 °C 30.1in /  1019.6hPa Sur 4.8mph /  7.7km/h 9.2mph /  14.8km/h 77.9% 0in /  0.0mm
04:09 65.1 °F /  18.4 °C 57.7 °F /  14.3 °C 30.1in /  1019.6hPa SSO 4.7mph /  7.6km/h 9mph /  14.5km/h 77% 0in /  0.0mm
04:14 65.1 °F /  18.4 °C 57.7 °F /  14.3 °C 30.1in /  1019.4hPa Sur 5.2mph /  8.4km/h 9.7mph /  15.6km/h 77% 0in /  0.0mm
04:19 65.1 °F /  18.4 °C 57.6 °F /  14.2 °C 30.1in /  1019.4hPa Sur 5.4mph /  8.7km/h 10mph /  16.1km/h 76.7% 0in /  0.0mm
04:24 65.1 °F /  18.4 °C 57.4 °F /  14.1 °C 30.1in /  1019.4hPa SSO 5.8mph /  9.3km/h 9mph /  14.5km/h 76% 0in /  0.0mm
04:29 64.9 °F /  18.3 °C 57.2 °F /  14 °C 30.1in /  1019.3hPa SSO 5.9mph /  9.5km/h 8mph /  12.9km/h 76% 0in /  0.0mm
04:34 64.9 °F /  18.3 °C 57.2 °F /  14 °C 30.1in /  1019.3hPa SO 5mph /  8km/h 7mph /  11.3km/h 76% 0in /  0.0mm
04:39 65.1 °F /  18.4 °C 57.4 °F /  14.1 °C 30.1in /  1019.3hPa SO 4.7mph /  7.6km/h 6mph /  9.7km/h 76% 0in /  0.0mm
04:44 65.1 °F /  18.4 °C 57.2 °F /  14 °C 30.1in /  1019.2hPa OSO 3.9mph /  6.2km/h 6.2mph /  10km/h 75.3% 0in /  0.0mm
04:49 65.5 °F /  18.6 °C 57.2 °F /  14 °C 30.1in /  1019.2hPa OSO 3.6mph /  5.8km/h 6mph /  9.7km/h 75% 0in /  0.0mm
04:54 65.5 °F /  18.6 °C 57.2 °F /  14 °C 30.1in /  1019.4hPa OSO 3.6mph /  5.8km/h 6mph /  9.7km/h 74.4% 0in /  0.0mm
04:59 65.5 °F /  18.6 °C 57.2 °F /  14 °C 30.1in /  1019.4hPa OSO 3.6mph /  5.8km/h 6mph /  9.7km/h 74.9% 0in /  0.0mm
05:04 65.5 °F /  18.6 °C 57.2 °F /  14 °C 30.1in /  1019.4hPa SO 3.2mph /  5.1km/h 5.9mph /  9.5km/h 75% 0in /  0.0mm
05:09 65.5 °F /  18.6 °C 57 °F /  13.9 °C 30.1in /  1019.4hPa SO 3.1mph /  5km/h 6mph /  9.7km/h 74.4% 0in /  0.0mm
05:14 65.5 °F /  18.6 °C 57 °F /  13.9 °C 30.1in /  1019.4hPa SSO 3.1mph /  5km/h 6mph /  9.7km/h 73.9% 0in /  0.0mm
05:19 65.7 °F /  18.7 °C 56.8 °F /  13.8 °C 30.1in /  1019.4hPa SSE 3.1mph /  5km/h 5.2mph /  8.4km/h 73% 0in /  0.0mm
05:24 65.7 °F /  18.7 °C 56.8 °F /  13.8 °C 30.1in /  1019.4hPa SSE 2.9mph /  4.7km/h 5.2mph /  8.4km/h 73% 0in /  0.0mm
05:29 65.7 °F /  18.7 °C 57 °F /  13.9 °C 30.1in /  1019.4hPa SSE 2.9mph /  4.7km/h 5mph /  8km/h 74% 0in /  0.0mm
05:34 65.5 °F /  18.6 °C 57 °F /  13.9 °C 30.1in /  1019.4hPa SSE 3mph /  4.9km/h 5.2mph /  8.4km/h 74.3% 0in /  0.0mm
05:39 65.1 °F /  18.4 °C 57.2 °F /  14 °C 30.1in /  1019.4hPa Sur 3.1mph /  5km/h 5.8mph /  9.3km/h 75.1% 0in /  0.0mm
05:44 64.9 °F /  18.3 °C 57.4 °F /  14.1 °C 30.1in /  1019.4hPa SSE 3.5mph /  5.6km/h 6mph /  9.7km/h 76% 0in /  0.0mm
05:49 64.8 °F /  18.2 °C 57.2 °F /  14 °C 30.1in /  1019.4hPa SSO 3.6mph /  5.8km/h 6mph /  9.7km/h 76.3% 0in /  0.0mm
05:54 64.8 °F /  18.2 °C 57.2 °F /  14 °C 30.1in /  1019.4hPa Sur 3.6mph /  5.8km/h 8.1mph /  13km/h 76.3% 0in /  0.0mm
05:59 64.8 °F /  18.2 °C 57 °F /  13.9 °C 30.1in /  1019.4hPa SSO 3.6mph /  5.8km/h 8mph /  12.9km/h 76% 0in /  0.0mm
06:04 64.9 °F /  18.3 °C 56.8 °F /  13.8 °C 30.1in /  1019.4hPa Sur 4.8mph /  7.8km/h 7mph /  11.3km/h 75.1% 0in /  0.0mm
06:09 65.1 °F /  18.4 °C 56.8 °F /  13.8 °C 30.1in /  1019.4hPa SSO 5.2mph /  8.4km/h 7mph /  11.3km/h 74.5% 0in /  0.0mm
06:14 65.1 °F /  18.4 °C 56.7 °F /  13.7 °C 30.1in /  1019.3hPa Sur 4mph /  6.4km/h 6mph /  9.7km/h 74% 0in /  0.0mm
06:19 65.3 °F /  18.5 °C 56.8 °F /  13.8 °C 30.1in /  1019.3hPa SSE 3.6mph /  5.8km/h 5mph /  8km/h 74% 0in /  0.0mm
06:24 65.3 °F /  18.5 °C 56.8 °F /  13.8 °C 30.1in /  1019.4hPa SE 3mph /  4.9km/h 5mph /  8km/h 74% 0in /  0.0mm
06:29 65.1 °F /  18.4 °C 57 °F /  13.9 °C 30.1in /  1019.4hPa SSE 2.9mph /  4.7km/h 5.8mph /  9.3km/h 74.8% 0in /  0.0mm
06:34 64.9 °F /  18.3 °C 56.8 °F /  13.8 °C 30.1in /  1019.4hPa SSE 3mph /  4.9km/h 6mph /  9.7km/h 75% 0in /  0.0mm
06:39 64.8 °F /  18.2 °C 57 °F /  13.9 °C 30.1in /  1019.4hPa Sur 3.1mph /  5km/h 5mph /  8km/h 75.9% 0in /  0.0mm
06:44 64.8 °F /  18.2 °C 57 °F /  13.9 °C 30.1in /  1019.4hPa Sur 2.9mph /  4.7km/h 5mph /  8km/h 76% 0in /  0.0mm
06:49 64.8 °F /  18.2 °C 57 °F /  13.9 °C 30.1in /  1019.4hPa Sur 2.9mph /  4.7km/h 5mph /  8km/h 76% 0in /  0.0mm
06:54 64.6 °F /  18.1 °C 56.7 °F /  13.7 °C 30.1in /  1019.7hPa SSO 2.1mph /  3.3km/h 6.9mph /  11.1km/h 75.6% 0in /  0.0mm
06:59 64.8 °F /  18.2 °C 56.5 °F /  13.6 °C 30.1in /  1019.7hPa SO 1.8mph /  2.9km/h 7mph /  11.3km/h 74.6% 0in /  0.0mm
07:04 64.9 °F /  18.3 °C 56.5 °F /  13.6 °C 30.1in /  1019.7hPa SO 3.5mph /  5.7km/h 6mph /  9.7km/h 74% 0in /  0.0mm
07:09 65.1 °F /  18.4 °C 56.1 °F /  13.4 °C 30.1in /  1019.7hPa SO 4mph /  6.5km/h 6.9mph /  11.1km/h 73% 0in /  0.0mm
07:14 65.1 °F /  18.4 °C 55.9 °F /  13.3 °C 30.1in /  1019.7hPa SO 4mph /  6.5km/h 7mph /  11.3km/h 72.4% 0in /  0.0mm
07:19 65.5 °F /  18.6 °C 55.8 °F /  13.2 °C 30.1in /  1019.7hPa SO 4mph /  6.5km/h 7mph /  11.3km/h 71.3% 0in /  0.0mm
07:24 65.7 °F /  18.7 °C 55.4 °F /  13 °C 30.1in /  1019.7hPa SO 4.5mph /  7.3km/h 7mph /  11.3km/h 69.6% 0in /  0.0mm
07:29 66 °F /  18.9 °C 55.4 °F /  13 °C 30.1in /  1019.7hPa SO 4.7mph /  7.6km/h 7mph /  11.3km/h 68.5% 0in /  0.0mm
07:34 66.2 °F /  19 °C 55.4 °F /  13 °C 30.1in /  1019.7hPa SSO 4.4mph /  7.1km/h 7.4mph /  11.9km/h 68% 0in /  0.0mm
07:39 66.4 °F /  19.1 °C 55.4 °F /  13 °C 30.1in /  1019.7hPa SSO 4.3mph /  6.9km/h 7mph /  11.3km/h 67.6% 0in /  0.0mm
07:44 66.6 °F /  19.2 °C 55.2 °F /  12.9 °C 30.1in /  1019.6hPa SO 4.3mph /  6.9km/h 7mph /  11.3km/h 67% 0in /  0.0mm
07:49 66.6 °F /  19.2 °C 55.6 °F /  13.1 °C 30.1in /  1019.6hPa SSE 4.3mph /  6.9km/h 7mph /  11.3km/h 67.8% 0in /  0.0mm
07:54 66 °F /  18.9 °C 56.1 °F /  13.4 °C 30.1in /  1019.9hPa ESE 3.4mph /  5.5km/h 6mph /  9.7km/h 70.2% 0in /  0.0mm
07:59 65.7 °F /  18.7 °C 56.1 °F /  13.4 °C 30.1in /  1019.9hPa ESE 3.1mph /  5km/h 4.6mph /  7.4km/h 71.6% 0in /  0.0mm
08:04 65.1 °F /  18.4 °C 56.1 °F /  13.4 °C 30.1in /  1019.9hPa ESE 2.2mph /  3.6km/h 5mph /  8km/h 72.8% 0in /  0.0mm
08:09 64.8 °F /  18.2 °C 56.3 °F /  13.5 °C 30.1in /  1019.9hPa SE 2mph /  3.2km/h 5.8mph /  9.3km/h 73.9% 0in /  0.0mm
08:14 64.4 °F /  18 °C 56.3 °F /  13.5 °C 30.1in /  1019.9hPa SE 2.7mph /  4.3km/h 6mph /  9.7km/h 75% 0in /  0.0mm
08:19 64 °F /  17.8 °C 56.3 °F /  13.5 °C 30.1in /  1019.9hPa SE 2.9mph /  4.7km/h 5.8mph /  9.3km/h 75.7% 0in /  0.0mm
08:24 64 °F /  17.8 °C 56.3 °F /  13.5 °C 30.1in /  1020.1hPa SSE 2.9mph /  4.7km/h 6mph /  9.7km/h 76% 0in /  0.0mm
08:29 64 °F /  17.8 °C 56.3 °F /  13.5 °C 30.1in /  1020.1hPa SSE 2.9mph /  4.7km/h 6mph /  9.7km/h 76% 0in /  0.0mm
08:34 64 °F /  17.8 °C 56.3 °F /  13.5 °C 30.1in /  1020.1hPa SSO 3mph /  4.9km/h 5.2mph /  8.4km/h 75.7% 0in /  0.0mm
08:39 64.6 °F /  18.1 °C 56.5 °F /  13.6 °C 30.1in /  1020.1hPa SSO 3.1mph /  5km/h 5mph /  8km/h 74.7% 0in /  0.0mm
08:44 65.3 °F /  18.5 °C 56.5 °F /  13.6 °C 30.1in /  1020.1hPa SSO 3.1mph /  5km/h 6.9mph /  11.1km/h 73.4% 0in /  0.0mm
08:49 65.8 °F /  18.8 °C 56.7 °F /  13.7 °C 30.1in /  1020.1hPa SSO 3.1mph /  5km/h 7mph /  11.3km/h 72% 0in /  0.0mm
08:54 66.6 °F /  19.2 °C 56.7 °F /  13.7 °C 30.1in /  1020.1hPa SO 4mph /  6.5km/h 7mph /  11.3km/h 70.6% 0in /  0.0mm
08:59 67.1 °F /  19.5 °C 56.8 °F /  13.8 °C 30.1in /  1020.1hPa Oeste 4.3mph /  6.9km/h 6.9mph /  11.1km/h 69.4% 0in /  0.0mm
09:04 67.6 °F /  19.8 °C 57.2 °F /  14 °C 30.1in /  1020.1hPa Oeste 3.7mph /  6km/h 7mph /  11.3km/h 69% 0in /  0.0mm
09:09 68.2 °F /  20.1 °C 57.2 °F /  14 °C 30.1in /  1020.3hPa OSO 3.6mph /  5.8km/h 7mph /  11.3km/h 68.3% 0in /  0.0mm
09:14 68.5 °F /  20.3 °C 57.2 °F /  14 °C 30.1in /  1020.3hPa OSO 3.9mph /  6.3km/h 7mph /  11.3km/h 67.1% 0in /  0.0mm
09:19 69.1 °F /  20.6 °C 57.2 °F /  14 °C 30.1in /  1020.3hPa OSO 4mph /  6.5km/h 6.9mph /  11.1km/h 66.1% 0in /  0.0mm
09:24 69.4 °F /  20.8 °C 57.2 °F /  14 °C 30.1in /  1020.5hPa SO 3.7mph /  6km/h 7mph /  11.3km/h 65.1% 0in /  0.0mm
09:29 70 °F /  21.1 °C 57.4 °F /  14.1 °C 30.1in /  1020.5hPa OSO 3.6mph /  5.8km/h 7mph /  11.3km/h 64.6% 0in /  0.0mm
09:34 70.2 °F /  21.2 °C 57.4 °F /  14.1 °C 30.1in /  1020.5hPa Oeste 4.1mph /  6.6km/h 7mph /  11.3km/h 64% 0in /  0.0mm
09:39 70.5 °F /  21.4 °C 57.7 °F /  14.3 °C 30.1in /  1020.7hPa Oeste 4.3mph /  6.9km/h 5.9mph /  9.5km/h 64% 0in /  0.0mm
09:44 70.9 °F /  21.6 °C 58.1 °F /  14.5 °C 30.1in /  1020.7hPa ONO 3.2mph /  5.2km/h 6mph /  9.7km/h 64% 0in /  0.0mm
09:49 71.2 °F /  21.8 °C 58.3 °F /  14.6 °C 30.1in /  1020.7hPa ONO 2.9mph /  4.7km/h 6mph /  9.7km/h 63.7% 0in /  0.0mm
09:54 71.4 °F /  21.9 °C 58.3 °F /  14.6 °C 30.1in /  1020.7hPa Oeste 3.4mph /  5.5km/h 6.9mph /  11.1km/h 63% 0in /  0.0mm
09:59 71.8 °F /  22.1 °C 58.5 °F /  14.7 °C 30.1in /  1020.7hPa OSO 3.6mph /  5.8km/h 7mph /  11.3km/h 62.9% 0in /  0.0mm
10:04 72.3 °F /  22.4 °C 58.1 °F /  14.5 °C 30.1in /  1020.7hPa OSO 3.6mph /  5.8km/h 7mph /  11.3km/h 61.2% 0in /  0.0mm
10:09 72.9 °F /  22.7 °C 57.9 °F /  14.4 °C 30.1in /  1020.7hPa Oeste 3.6mph /  5.8km/h 7mph /  11.3km/h 59.9% 0in /  0.0mm
10:14 73 °F /  22.8 °C 57.9 °F /  14.4 °C 30.1in /  1020.7hPa OSO 3.2mph /  5.2km/h 5.9mph /  9.5km/h 59% 0in /  0.0mm
10:19 73.6 °F /  23.1 °C 57.9 °F /  14.4 °C 30.1in /  1020.7hPa Oeste 3.1mph /  5km/h 11.5mph /  18.5km/h 58% 0in /  0.0mm
10:24 73.6 °F /  23.1 °C 57.9 °F /  14.4 °C 30.1in /  1020.7hPa OSO 4mph /  6.5km/h 12mph /  19.3km/h 58% 0in /  0.0mm
10:29 73.8 °F /  23.2 °C 58.1 °F /  14.5 °C 30.1in /  1020.7hPa OSO 4.3mph /  6.9km/h 9mph /  14.5km/h 58% 0in /  0.0mm
10:34 73.9 °F /  23.3 °C 58.3 °F /  14.6 °C 30.1in /  1020.7hPa SO 5mph /  8km/h 9mph /  14.5km/h 58% 0in /  0.0mm
10:39 74.3 °F /  23.5 °C 58.1 °F /  14.5 °C 30.1in /  1020.7hPa Oeste 5.2mph /  8.4km/h 7.4mph /  11.9km/h 57.1% 0in /  0.0mm
10:44 74.7 °F /  23.7 °C 58.5 °F /  14.7 °C 30.1in /  1020.6hPa OSO 4mph /  6.4km/h 9.2mph /  14.8km/h 57.1% 0in /  0.0mm
10:49 74.8 °F /  23.8 °C 58.5 °F /  14.7 °C 30.1in /  1020.6hPa SO 3.6mph /  5.8km/h 15mph /  24.1km/h 56.7% 0in /  0.0mm
10:54 75.2 °F /  24 °C 58.5 °F /  14.7 °C 30.1in /  1020.6hPa OSO 5.3mph /  8.6km/h 15mph /  24.1km/h 55.9% 0in /  0.0mm
10:59 75.4 °F /  24.1 °C 58.1 °F /  14.5 °C 30.1in /  1020.5hPa Oeste 5.9mph /  9.5km/h 16.1mph /  25.9km/h 55.1% 0in /  0.0mm
11:04 75.6 °F /  24.2 °C 58.3 °F /  14.6 °C 30.1in /  1020.5hPa ONO 6.7mph /  10.8km/h 16mph /  25.7km/h 55% 0in /  0.0mm
11:09 75.7 °F /  24.3 °C 58.5 °F /  14.7 °C 30.1in /  1020.5hPa Oeste 6.9mph /  11.1km/h 14mph /  22.5km/h 55% 0in /  0.0mm
11:14 75.7 °F /  24.3 °C 58.5 °F /  14.7 °C 30.1in /  1020.5hPa Oeste 7.8mph /  12.6km/h 14mph /  22.5km/h 55% 0in /  0.0mm
11:19 76.1 °F /  24.5 °C 58.6 °F /  14.8 °C 30.1in /  1020.5hPa Oeste 8.1mph /  13km/h 9mph /  14.5km/h 54.8% 0in /  0.0mm
11:24 76.5 °F /  24.7 °C 58.5 °F /  14.7 °C 30.1in /  1020.5hPa OSO 5.9mph /  9.5km/h 16.1mph /  25.9km/h 53.8% 0in /  0.0mm
11:29 76.6 °F /  24.8 °C 58.3 °F /  14.6 °C 30.1in /  1020.5hPa Oeste 5.2mph /  8.4km/h 16mph /  25.7km/h 53.1% 0in /  0.0mm
11:34 76.6 °F /  24.8 °C 58.3 °F /  14.6 °C 30.1in /  1020.5hPa Oeste 6.8mph /  11km/h 14mph /  22.5km/h 53% 0in /  0.0mm
11:39 77 °F /  25 °C 58.1 °F /  14.5 °C 30.1in /  1020.5hPa Oeste 7.4mph /  11.9km/h 12.7mph /  20.4km/h 52.3% 0in /  0.0mm
11:44 77.4 °F /  25.2 °C 58.1 °F /  14.5 °C 30.1in /  1020.4hPa ONO 6.6mph /  10.7km/h 17.5mph /  28.2km/h 51.6% 0in /  0.0mm
11:49 77.4 °F /  25.2 °C 57.7 °F /  14.3 °C 30.1in /  1020.4hPa ONO 6.4mph /  10.3km/h 19.7mph /  31.7km/h 50.8% 0in /  0.0mm
11:54 77.5 °F /  25.3 °C 57.9 °F /  14.4 °C 30.1in /  1020.4hPa ONO 8.9mph /  14.3km/h 22.3mph /  35.9km/h 50.8% 0in /  0.0mm
11:59 77.5 °F /  25.3 °C 57.7 °F /  14.3 °C 30.1in /  1020.4hPa ONO 9.7mph /  15.6km/h 22mph /  35.4km/h 50.7% 0in /  0.0mm
12:04 77.5 °F /  25.3 °C 57.9 °F /  14.4 °C 30.1in /  1020.4hPa ONO 10.1mph /  16.2km/h 17mph /  27.4km/h 50.9% 0in /  0.0mm
12:09 77.5 °F /  25.3 °C 57.6 °F /  14.2 °C 30.1in /  1020.4hPa ONO 10.2mph /  16.4km/h 16.1mph /  25.9km/h 50.2% 0in /  0.0mm
12:14 77.9 °F /  25.5 °C 58.3 °F /  14.6 °C 30.1in /  1020.2hPa ONO 8.6mph /  13.8km/h 16mph /  25.7km/h 50.9% 0in /  0.0mm
12:19 78.1 °F /  25.6 °C 57.9 °F /  14.4 °C 30.1in /  1020.2hPa Oeste 8.1mph /  13km/h 12.7mph /  20.4km/h 50.1% 0in /  0.0mm
12:24 78.1 °F /  25.6 °C 57.9 °F /  14.4 °C 30.1in /  1020.2hPa Oeste 7.2mph /  11.6km/h 13mph /  20.9km/h 50.1% 0in /  0.0mm
12:29 78.1 °F /  25.6 °C 57.7 °F /  14.3 °C 30.1in /  1019.9hPa Oeste 6.9mph /  11.1km/h 15.2mph /  24.5km/h 49.8% 0in /  0.0mm
12:34 78.3 °F /  25.7 °C 57.4 °F /  14.1 °C 30.1in /  1019.9hPa Oeste 7.8mph /  12.6km/h 15mph /  24.1km/h 49% 0in /  0.0mm
12:39 78.4 °F /  25.8 °C 57.6 °F /  14.2 °C 30.1in /  1019.9hPa Oeste 8.1mph /  13km/h 16.3mph /  26.2km/h 48.8% 0in /  0.0mm
12:44 78.6 °F /  25.9 °C 57.2 °F /  14 °C 30.1in /  1019.5hPa Oeste 8.9mph /  14.4km/h 21.3mph /  34.3km/h 47.9% 0in /  0.0mm
12:49 78.6 °F /  25.9 °C 57.4 °F /  14.1 °C 30.1in /  1019.5hPa Oeste 9.2mph /  14.8km/h 21mph /  33.8km/h 48% 0in /  0.0mm
12:54 78.6 °F /  25.9 °C 57.4 °F /  14.1 °C 30.1in /  1019.5hPa ONO 11.6mph /  18.6km/h 24.2mph /  38.9km/h 48% 0in /  0.0mm
12:59 78.8 °F /  26 °C 57 °F /  13.9 °C 30.1in /  1019.4hPa ONO 12.3mph /  19.8km/h 24mph /  38.6km/h 47.2% 0in /  0.0mm
13:04 78.8 °F /  26 °C 57.2 °F /  14 °C 30.1in /  1019.4hPa ONO 12.3mph /  19.8km/h 22mph /  35.4km/h 47.7% 0in /  0.0mm
13:09 79 °F /  26.1 °C 57.2 °F /  14 °C 30.1in /  1019.4hPa Oeste 12.3mph /  19.8km/h 19mph /  30.6km/h 47.4% 0in /  0.0mm
13:14 79.2 °F /  26.2 °C 57.2 °F /  14 °C 30.1in /  1019.3hPa Oeste 10.7mph /  17.3km/h 19mph /  30.6km/h 47.2% 0in /  0.0mm
13:19 79.2 °F /  26.2 °C 57 °F /  13.9 °C 30.1in /  1019.3hPa Oeste 10.2mph /  16.4km/h 17mph /  27.4km/h 47% 0in /  0.0mm
13:24 79.2 °F /  26.2 °C 57 °F /  13.9 °C 30.1in /  1019.3hPa Oeste 10.2mph /  16.4km/h 18.4mph /  29.6km/h 46.7% 0in /  0.0mm
13:29 79.2 °F /  26.2 °C 56.7 °F /  13.7 °C 30.1in /  1019.1hPa ONO 10.2mph /  16.4km/h 19mph /  30.6km/h 46.2% 0in /  0.0mm
13:34 79.2 °F /  26.2 °C 56.7 °F /  13.7 °C 30.1in /  1019.1hPa ONO 11.8mph /  19km/h 19.7mph /  31.7km/h 46% 0in /  0.0mm
13:39 79.2 °F /  26.2 °C 56.7 °F /  13.7 °C 30.1in /  1019.1hPa ONO 12.3mph /  19.8km/h 20mph /  32.2km/h 46% 0in /  0.0mm
13:44 79.3 °F /  26.3 °C 56.8 °F /  13.8 °C 30.1in /  1019.1hPa ONO 12.5mph /  20.1km/h 23.5mph /  37.8km/h 46% 0in /  0.0mm
13:49 79.5 °F /  26.4 °C 56.8 °F /  13.8 °C 30.1in /  1019.1hPa ONO 12.5mph /  20.1km/h 23mph /  37km/h 46% 0in /  0.0mm
13:54 79.9 °F /  26.6 °C 56.8 °F /  13.8 °C 30.1in /  1019.1hPa ONO 10.7mph /  17.3km/h 19mph /  30.6km/h 45.5% 0in /  0.0mm
13:59 79.7 °F /  26.5 °C 56.7 °F /  13.7 °C 30.1in /  1018.9hPa ONO 10.2mph /  16.4km/h 19mph /  30.6km/h 45.3% 0in /  0.0mm
14:04 79.9 °F /  26.6 °C 57 °F /  13.9 °C 30.1in /  1018.9hPa ONO 11.2mph /  18km/h 21.3mph /  34.3km/h 45.5% 0in /  0.0mm
14:09 79.9 °F /  26.6 °C 56.8 °F /  13.8 °C 30.1in /  1018.9hPa ONO 11.4mph /  18.4km/h 21mph /  33.8km/h 45.4% 0in /  0.0mm
14:14 80.1 °F /  26.7 °C 57 °F /  13.9 °C 30.1in /  1018.8hPa ONO 11.4mph /  18.4km/h 18.5mph /  29.8km/h 45.4% 0in /  0.0mm
14:19 80.1 °F /  26.7 °C 57 °F /  13.9 °C 30.1in /  1018.8hPa ONO 11.4mph /  18.4km/h 19mph /  30.6km/h 45.4% 0in /  0.0mm
14:24 80.1 °F /  26.7 °C 57 °F /  13.9 °C 30.1in /  1018.8hPa Oeste 10.5mph /  16.9km/h 18.5mph /  29.8km/h 45.3% 0in /  0.0mm
14:29 80.1 °F /  26.7 °C 57 °F /  13.9 °C 30.1in /  1018.7hPa ONO 10.2mph /  16.4km/h 19mph /  30.6km/h 45.3% 0in /  0.0mm
14:34 79.9 °F /  26.6 °C 56.8 °F /  13.8 °C 30.1in /  1018.7hPa ONO 11.1mph /  17.9km/h 18.4mph /  29.6km/h 45.2% 0in /  0.0mm
14:39 79.9 °F /  26.6 °C 56.7 °F /  13.7 °C 30.1in /  1018.7hPa ONO 11.4mph /  18.4km/h 16.1mph /  25.9km/h 45.1% 0in /  0.0mm
14:44 80.1 °F /  26.7 °C 56.8 °F /  13.8 °C 30.1in /  1018.5hPa ONO 9.8mph /  15.7km/h 19.6mph /  31.5km/h 45.2% 0in /  0.0mm
14:49 80.1 °F /  26.7 °C 57 °F /  13.9 °C 30.1in /  1018.5hPa ONO 9.2mph /  14.8km/h 20mph /  32.2km/h 45.5% 0in /  0.0mm
14:54 80.1 °F /  26.7 °C 57.4 °F /  14.1 °C 30.1in /  1018.5hPa ONO 8.8mph /  14.2km/h 15mph /  24.1km/h 46% 0in /  0.0mm
14:59 80.1 °F /  26.7 °C 56.8 °F /  13.8 °C 30.1in /  1018.4hPa ONO 8.7mph /  14km/h 13.8mph /  22.2km/h 45% 0in /  0.0mm
15:04 80.1 °F /  26.7 °C 57 °F /  13.9 °C 30.1in /  1018.4hPa ONO 7.8mph /  12.6km/h 14mph /  22.5km/h 45.1% 0in /  0.0mm
15:09 80.2 °F /  26.8 °C 57.4 °F /  14.1 °C 30.1in /  1018.4hPa ONO 7.6mph /  12.2km/h 14mph /  22.5km/h 45.5% 0in /  0.0mm
15:14 80.2 °F /  26.8 °C 57.2 °F /  14 °C 30.1in /  1018.3hPa ONO 7.5mph /  12km/h 15mph /  24.1km/h 45.2% 0in /  0.0mm
15:19 80.2 °F /  26.8 °C 57 °F /  13.9 °C 30.1in /  1018.3hPa ONO 7.4mph /  11.9km/h 15mph /  24.1km/h 45% 0in /  0.0mm
15:24 80.1 °F /  26.7 °C 57.2 °F /  14 °C 30.1in /  1018.3hPa ONO 8mph /  12.8km/h 14mph /  22.5km/h 45.7% 0in /  0.0mm
15:29 80.1 °F /  26.7 °C 57 °F /  13.9 °C 30.1in /  1018.3hPa Oeste 8.1mph /  13km/h 14mph /  22.5km/h 45.5% 0in /  0.0mm
15:34 80.1 °F /  26.7 °C 57 °F /  13.9 °C 30.1in /  1018.3hPa OSO 7.7mph /  12.4km/h 13mph /  20.9km/h 45.4% 0in /  0.0mm
15:39 80.2 °F /  26.8 °C 56.7 °F /  13.7 °C 30.1in /  1018.3hPa OSO 7.6mph /  12.2km/h 13.8mph /  22.2km/h 44.5% 0in /  0.0mm
15:44 80.4 °F /  26.9 °C 56.8 °F /  13.8 °C 30.1in /  1018.2hPa Oeste 6.5mph /  10.5km/h 14mph /  22.5km/h 44.3% 0in /  0.0mm
15:49 80.8 °F /  27.1 °C 57 °F /  13.9 °C 30.1in /  1018.2hPa OSO 6.2mph /  10km/h 12.7mph /  20.4km/h 44.2% 0in /  0.0mm
15:54 80.8 °F /  27.1 °C 56.8 °F /  13.8 °C 30.1in /  1018.2hPa Oeste 6.7mph /  10.8km/h 13mph /  20.9km/h 44% 0in /  0.0mm
15:59 80.8 °F /  27.1 °C 56.8 °F /  13.8 °C 30.1in /  1018.2hPa Oeste 6.9mph /  11.1km/h 14mph /  22.5km/h 44% 0in /  0.0mm
16:04 80.6 °F /  27 °C 56.7 °F /  13.7 °C 30.1in /  1018.2hPa Oeste 6.9mph /  11.1km/h 14mph /  22.5km/h 44% 0in /  0.0mm
16:09 80.8 °F /  27.1 °C 56.8 °F /  13.8 °C 30.1in /  1018.2hPa OSO 6.9mph /  11.1km/h 15.9mph /  25.6km/h 44% 0in /  0.0mm
16:14 80.6 °F /  27 °C 56.7 °F /  13.7 °C 30.1in /  1018.1hPa OSO 6.5mph /  10.5km/h 16.1mph /  25.9km/h 44% 0in /  0.0mm
16:19 80.4 °F /  26.9 °C 56.5 °F /  13.6 °C 30.1in /  1018.1hPa OSO 6.4mph /  10.3km/h 16.1mph /  25.9km/h 43.9% 0in /  0.0mm
16:24 80.4 °F /  26.9 °C 56.5 °F /  13.6 °C 30.1in /  1018.1hPa OSO 8mph /  12.9km/h 16mph /  25.7km/h 44% 0in /  0.0mm
16:29 80.4 °F /  26.9 °C 56.5 °F /  13.6 °C 30.1in /  1018.0hPa OSO 8.5mph /  13.7km/h 13mph /  20.9km/h 44% 0in /  0.0mm
16:34 80.2 °F /  26.8 °C 56.5 °F /  13.6 °C 30.1in /  1018.0hPa Oeste 6.9mph /  11.1km/h 11mph /  17.7km/h 44% 0in /  0.0mm
16:39 80.2 °F /  26.8 °C 56.3 °F /  13.5 °C 30.1in /  1018.1hPa OSO 6.4mph /  10.3km/h 10.4mph /  16.7km/h 44% 0in /  0.0mm
16:44 80.2 °F /  26.8 °C 56.5 °F /  13.6 °C 30.1in /  1018.1hPa OSO 5.5mph /  8.8km/h 9mph /  14.5km/h 44.2% 0in /  0.0mm
16:49 80.4 °F /  26.9 °C 56.3 °F /  13.5 °C 30.1in /  1018.1hPa OSO 5.2mph /  8.4km/h 12.7mph /  20.4km/h 43.5% 0in /  0.0mm
16:54 80.8 °F /  27.1 °C 56.1 °F /  13.4 °C 30.1in /  1018.1hPa OSO 5.7mph /  9.2km/h 14.7mph /  23.7km/h 43% 0in /  0.0mm
16:59 80.8 °F /  27.1 °C 56.1 °F /  13.4 °C 30.1in /  1018.0hPa OSO 5.9mph /  9.5km/h 15mph /  24.1km/h 43% 0in /  0.0mm
17:04 80.6 °F /  27 °C 55.9 °F /  13.3 °C 30.1in /  1018.0hPa OSO 8mph /  12.8km/h 16.1mph /  25.9km/h 43% 0in /  0.0mm
17:09 80.4 °F /  26.9 °C 56.3 °F /  13.5 °C 30.1in /  1018.0hPa OSO 8.5mph /  13.7km/h 16.1mph /  25.9km/h 43.7% 0in /  0.0mm
17:14 80.2 °F /  26.8 °C 56.3 °F /  13.5 °C 30.1in /  1018.0hPa OSO 7.8mph /  12.6km/h 15mph /  24.1km/h 44% 0in /  0.0mm
17:19 80.1 °F /  26.7 °C 56.3 °F /  13.5 °C 30.1in /  1018.0hPa OSO 7.6mph /  12.2km/h 13mph /  20.9km/h 44% 0in /  0.0mm
17:24 80.1 °F /  26.7 °C 56.1 °F /  13.4 °C 30.1in /  1018.2hPa OSO 6.3mph /  10.1km/h 12mph /  19.3km/h 44.1% 0in /  0.0mm
17:29 79.9 °F /  26.6 °C 56.7 °F /  13.7 °C 30.1in /  1018.2hPa OSO 5.9mph /  9.5km/h 12mph /  19.3km/h 45% 0in /  0.0mm
17:34 79.9 °F /  26.6 °C 56.5 °F /  13.6 °C 30.1in /  1018.2hPa OSO 5.9mph /  9.5km/h 12.7mph /  20.4km/h 45% 0in /  0.0mm
17:39 79.5 °F /  26.4 °C 56.3 °F /  13.5 °C 30.1in /  1018.2hPa OSO 5.9mph /  9.5km/h 13mph /  20.9km/h 45% 0in /  0.0mm
17:44 79.3 °F /  26.3 °C 56.3 °F /  13.5 °C 30.1in /  1018.2hPa OSO 5.5mph /  8.9km/h 12.7mph /  20.4km/h 45% 0in /  0.0mm
17:49 79.3 °F /  26.3 °C 56.5 °F /  13.6 °C 30.1in /  1018.2hPa OSO 5.4mph /  8.7km/h 13mph /  20.9km/h 45.4% 0in /  0.0mm
17:54 79.2 °F /  26.2 °C 56.5 °F /  13.6 °C 30.1in /  1018.3hPa OSO 6mph /  9.7km/h 12mph /  19.3km/h 46% 0in /  0.0mm
17:59 79 °F /  26.1 °C 56.3 °F /  13.5 °C 30.1in /  1018.3hPa OSO 6.2mph /  10km/h 10.7mph /  17.2km/h 46% 0in /  0.0mm
18:04 78.6 °F /  25.9 °C 56.1 °F /  13.4 °C 30.1in /  1018.3hPa OSO 6mph /  9.6km/h 11mph /  17.7km/h 46% 0in /  0.0mm
18:09 78.4 °F /  25.8 °C 56.3 °F /  13.5 °C 30.1in /  1018.4hPa OSO 5.9mph /  9.5km/h 11.5mph /  18.5km/h 46.7% 0in /  0.0mm
18:14 78.3 °F /  25.7 °C 56.5 °F /  13.6 °C 30.1in /  1018.4hPa OSO 5.5mph /  8.9km/h 12mph /  19.3km/h 47% 0in /  0.0mm
18:19 78.1 °F /  25.6 °C 56.3 °F /  13.5 °C 30.1in /  1018.4hPa OSO 5.4mph /  8.7km/h 10mph /  16.1km/h 47% 0in /  0.0mm
18:24 78.1 °F /  25.6 °C 56.1 °F /  13.4 °C 30.1in /  1018.5hPa OSO 5.4mph /  8.7km/h 9.7mph /  15.6km/h 47% 0in /  0.0mm
18:29 77.9 °F /  25.5 °C 55.9 °F /  13.3 °C 30.1in /  1018.5hPa OSO 5.4mph /  8.7km/h 10mph /  16.1km/h 47% 0in /  0.0mm
18:34 77.7 °F /  25.4 °C 55.9 °F /  13.3 °C 30.1in /  1018.5hPa OSO 5.3mph /  8.5km/h 9mph /  14.5km/h 47.1% 0in /  0.0mm
18:39 77.5 °F /  25.3 °C 56.3 °F /  13.5 °C 30.1in /  1018.7hPa OSO 5.2mph /  8.4km/h 8.5mph /  13.7km/h 48% 0in /  0.0mm
18:44 77.5 °F /  25.3 °C 56.3 °F /  13.5 °C 30.1in /  1018.7hPa OSO 4.8mph /  7.8km/h 9.2mph /  14.8km/h 48% 0in /  0.0mm
18:49 77.4 °F /  25.2 °C 56.1 °F /  13.4 °C 30.1in /  1018.7hPa OSO 4.7mph /  7.6km/h 9mph /  14.5km/h 48% 0in /  0.0mm
18:54 77.4 °F /  25.2 °C 56.1 °F /  13.4 °C 30.1in /  1019.0hPa OSO 4.7mph /  7.6km/h 7mph /  11.3km/h 48% 0in /  0.0mm
18:59 77.2 °F /  25.1 °C 56.5 °F /  13.6 °C 30.1in /  1019.0hPa OSO 4.7mph /  7.6km/h 7mph /  11.3km/h 48.9% 0in /  0.0mm
19:04 76.8 °F /  24.9 °C 56.3 °F /  13.5 °C 30.1in /  1019.0hPa OSO 3.9mph /  6.2km/h 6mph /  9.7km/h 49% 0in /  0.0mm
19:09 76.6 °F /  24.8 °C 56.3 °F /  13.5 °C 30.1in /  1019.1hPa Oeste 3.6mph /  5.8km/h 5mph /  8km/h 49.4% 0in /  0.0mm
19:14 76.5 °F /  24.7 °C 56.5 °F /  13.6 °C 30.1in /  1019.1hPa SO 2.7mph /  4.3km/h 5.2mph /  8.4km/h 50% 0in /  0.0mm
19:19 76.5 °F /  24.7 °C 56.3 °F /  13.5 °C 30.1in /  1019.1hPa SO 2.4mph /  3.9km/h 5.9mph /  9.5km/h 50% 0in /  0.0mm
19:24 76.3 °F /  24.6 °C 56.3 °F /  13.5 °C 30.1in /  1019.1hPa SO 3.3mph /  5.3km/h 6mph /  9.7km/h 50% 0in /  0.0mm
19:29 75.9 °F /  24.4 °C 56.3 °F /  13.5 °C 30.1in /  1019.1hPa SSO 3.6mph /  5.8km/h 6mph /  9.7km/h 50.5% 0in /  0.0mm
19:34 75.9 °F /  24.4 °C 56.7 °F /  13.7 °C 30.1in /  1019.1hPa SSE 3.2mph /  5.2km/h 5.4mph /  8.7km/h 51.4% 0in /  0.0mm
19:39 75.6 °F /  24.2 °C 56.7 °F /  13.7 °C 30.1in /  1019.3hPa SSE 3.1mph /  5km/h 6mph /  9.7km/h 52.3% 0in /  0.0mm
19:44 75 °F /  23.9 °C 56.7 °F /  13.7 °C 30.1in /  1019.3hPa SSE 3.5mph /  5.6km/h 6mph /  9.7km/h 53% 0in /  0.0mm
19:49 74.8 °F /  23.8 °C 56.7 °F /  13.7 °C 30.1in /  1019.3hPa Sur 3.6mph /  5.8km/h 6mph /  9.7km/h 53% 0in /  0.0mm
19:54 74.7 °F /  23.7 °C 56.8 °F /  13.8 °C 30.1in /  1019.5hPa Sur 2.4mph /  3.8km/h 5.2mph /  8.4km/h 53.8% 0in /  0.0mm
19:59 74.7 °F /  23.7 °C 56.8 °F /  13.8 °C 30.1in /  1019.5hPa SE 2mph /  3.2km/h 5.2mph /  8.4km/h 54% 0in /  0.0mm
20:04 74.3 °F /  23.5 °C 56.7 °F /  13.7 °C 30.1in /  1019.5hPa SE 2.9mph /  4.6km/h 5.8mph /  9.3km/h 54% 0in /  0.0mm
20:09 74.1 °F /  23.4 °C 56.8 °F /  13.8 °C 30.1in /  1019.5hPa SE 3.1mph /  5km/h 6mph /  9.7km/h 54.9% 0in /  0.0mm
20:14 73.9 °F /  23.3 °C 56.8 °F /  13.8 °C 30.1in /  1019.5hPa SE 3.8mph /  6.1km/h 6mph /  9.7km/h 55% 0in /  0.0mm
20:19 73.8 °F /  23.2 °C 56.7 °F /  13.7 °C 30.1in /  1019.5hPa SE 4mph /  6.5km/h 6.9mph /  11.1km/h 55% 0in /  0.0mm
20:24 73.8 °F /  23.2 °C 56.7 °F /  13.7 °C 30.1in /  1019.5hPa SE 4.2mph /  6.8km/h 7mph /  11.3km/h 55% 0in /  0.0mm
20:29 73.9 °F /  23.3 °C 56.7 °F /  13.7 °C 30.1in /  1019.5hPa SE 4.3mph /  6.9km/h 7mph /  11.3km/h 55% 0in /  0.0mm
20:34 73.9 °F /  23.3 °C 56.7 °F /  13.7 °C 30.1in /  1019.5hPa SSE 4.3mph /  6.9km/h 7mph /  11.3km/h 54.8% 0in /  0.0mm
20:39 74.1 °F /  23.4 °C 56.5 °F /  13.6 °C 30.1in /  1019.5hPa Sur 4.3mph /  6.9km/h 7mph /  11.3km/h 54% 0in /  0.0mm
20:44 74.3 °F /  23.5 °C 56.5 °F /  13.6 °C 30.1in /  1019.5hPa Sur 4.6mph /  7.4km/h 7.4mph /  11.9km/h 54% 0in /  0.0mm
20:49 74.5 °F /  23.6 °C 56.3 °F /  13.5 °C 30.1in /  1019.5hPa Sur 4.7mph /  7.6km/h 7mph /  11.3km/h 53.3% 0in /  0.0mm
20:54 74.5 °F /  23.6 °C 56.1 °F /  13.4 °C 30.1in /  1019.7hPa Sur 4.4mph /  7.1km/h 7mph /  11.3km/h 53% 0in /  0.0mm
20:59 74.5 °F /  23.6 °C 56.3 °F /  13.5 °C 30.1in /  1019.7hPa Sur 4.3mph /  6.9km/h 6.4mph /  10.3km/h 53.1% 0in /  0.0mm
21:04 74.3 °F /  23.5 °C 56.5 °F /  13.6 °C 30.1in /  1019.7hPa Sur 4mph /  6.5km/h 6.9mph /  11.1km/h 54% 0in /  0.0mm
21:09 74.1 °F /  23.4 °C 56.5 °F /  13.6 °C 30.1in /  1019.9hPa SE 4mph /  6.5km/h 7mph /  11.3km/h 54.1% 0in /  0.0mm
21:14 73.8 °F /  23.2 °C 56.7 °F /  13.7 °C 30.1in /  1019.9hPa SE 3.4mph /  5.4km/h 5.9mph /  9.5km/h 55.3% 0in /  0.0mm
21:19 73 °F /  22.8 °C 56.7 °F /  13.7 °C 30.1in /  1019.9hPa ESE 3.1mph /  5km/h 6mph /  9.7km/h 56.5% 0in /  0.0mm
21:24 72.5 °F /  22.5 °C 56.5 °F /  13.6 °C 30.1in /  1020.1hPa ESE 3.8mph /  6.1km/h 6mph /  9.7km/h 57% 0in /  0.0mm
21:29 72.3 °F /  22.4 °C 56.1 °F /  13.4 °C 30.1in /  1020.1hPa ESE 4mph /  6.5km/h 6.9mph /  11.1km/h 57% 0in /  0.0mm
21:34 72.3 °F /  22.4 °C 56.3 °F /  13.5 °C 30.1in /  1020.1hPa ESE 4.2mph /  6.8km/h 7mph /  11.3km/h 56.9% 0in /  0.0mm
21:39 72.7 °F /  22.6 °C 56.1 °F /  13.4 °C 30.1in /  1020.1hPa ESE 4.3mph /  6.9km/h 6mph /  9.7km/h 56.2% 0in /  0.0mm
21:44 72.9 °F /  22.7 °C 56.1 °F /  13.4 °C 30.1in /  1020.1hPa SE 3.8mph /  6.1km/h 6.4mph /  10.3km/h 56% 0in /  0.0mm
21:49 72.9 °F /  22.7 °C 56.3 °F /  13.5 °C 30.1in /  1020.1hPa Sur 3.6mph /  5.8km/h 7mph /  11.3km/h 56.3% 0in /  0.0mm
21:54 72.7 °F /  22.6 °C 56.5 °F /  13.6 °C 30.1in /  1020.1hPa SSO 4.1mph /  6.6km/h 6.9mph /  11.1km/h 56.6% 0in /  0.0mm
21:59 72.7 °F /  22.6 °C 56.5 °F /  13.6 °C 30.1in /  1020.1hPa SSO 4.3mph /  6.9km/h 7mph /  11.3km/h 57% 0in /  0.0mm
22:04 72.3 °F /  22.4 °C 56.3 °F /  13.5 °C 30.1in /  1020.1hPa SSO 4mph /  6.5km/h 6.9mph /  11.1km/h 57% 0in /  0.0mm
22:09 72.1 °F /  22.3 °C 56.1 °F /  13.4 °C 30.1in /  1020.2hPa SSO 4mph /  6.5km/h 7mph /  11.3km/h 57% 0in /  0.0mm
22:14 72.1 °F /  22.3 °C 55.9 °F /  13.3 °C 30.1in /  1020.2hPa SSO 4.2mph /  6.8km/h 6.9mph /  11.1km/h 57% 0in /  0.0mm
22:19 72 °F /  22.2 °C 56.5 °F /  13.6 °C 30.1in /  1020.2hPa SSO 4.3mph /  6.9km/h 7mph /  11.3km/h 58% 0in /  0.0mm
22:24 72 °F /  22.2 °C 56.5 °F /  13.6 °C 30.1in /  1020.3hPa SSO 4.3mph /  6.9km/h 6.2mph /  10km/h 58% 0in /  0.0mm
22:29 72 °F /  22.2 °C 56.5 °F /  13.6 °C 30.1in /  1020.3hPa SSO 4.3mph /  6.9km/h 6.9mph /  11.1km/h 58% 0in /  0.0mm
22:34 72 °F /  22.2 °C 56.1 °F /  13.4 °C 30.1in /  1020.3hPa SO 4.1mph /  6.6km/h 7mph /  11.3km/h 57.3% 0in /  0.0mm
22:39 71.8 °F /  22.1 °C 56.1 °F /  13.4 °C 30.1in /  1020.3hPa Oeste 4mph /  6.5km/h 6mph /  9.7km/h 57.8% 0in /  0.0mm
22:44 71.6 °F /  22 °C 56.5 °F /  13.6 °C 30.1in /  1020.3hPa ONO 3.2mph /  5.1km/h 5mph /  8km/h 58.9% 0in /  0.0mm
22:49 71.2 °F /  21.8 °C 56.5 °F /  13.6 °C 30.1in /  1020.3hPa ONO 2.9mph /  4.7km/h 3.5mph /  5.6km/h 59.8% 0in /  0.0mm
22:54 70.9 °F /  21.6 °C 56.7 °F /  13.7 °C 30.1in /  1020.3hPa NO 1.7mph /  2.8km/h 3.5mph /  5.6km/h 60.6% 0in /  0.0mm
22:59 70.3 °F /  21.3 °C 56.7 °F /  13.7 °C 30.1in /  1020.3hPa ENE 1.4mph /  2.2km/h 4.6mph /  7.4km/h 61.5% 0in /  0.0mm
23:04 70.2 °F /  21.2 °C 56.5 °F /  13.6 °C 30.1in /  1020.3hPa ESE 2.2mph /  3.5km/h 5mph /  8km/h 62.2% 0in /  0.0mm
23:09 69.8 °F /  21 °C 56.7 °F /  13.7 °C 30.1in /  1020.3hPa SE 2.4mph /  3.9km/h 5mph /  8km/h 63% 0in /  0.0mm
23:14 69.6 °F /  20.9 °C 56.8 °F /  13.8 °C 30.1in /  1020.3hPa SSE 2.8mph /  4.5km/h 5.4mph /  8.7km/h 63.9% 0in /  0.0mm
23:19 69.4 °F /  20.8 °C 56.8 °F /  13.8 °C 30.1in /  1020.3hPa Sur 2.9mph /  4.7km/h 6.9mph /  11.1km/h 64% 0in /  0.0mm
23:24 69.6 °F /  20.9 °C 56.5 °F /  13.6 °C 30.1in /  1020.3hPa SSO 4mph /  6.4km/h 8.1mph /  13km/h 63% 0in /  0.0mm
23:29 69.8 °F /  21 °C 56.5 °F /  13.6 °C 30.1in /  1020.2hPa SSO 4.3mph /  6.9km/h 8mph /  12.9km/h 62.9% 0in /  0.0mm
23:34 69.8 °F /  21 °C 56.1 °F /  13.4 °C 30.1in /  1020.2hPa SSO 4.6mph /  7.4km/h 8.7mph /  14km/h 62% 0in /  0.0mm
23:39 69.8 °F /  21 °C 56.3 °F /  13.5 °C 30.1in /  1020.2hPa SSO 4.7mph /  7.6km/h 10.4mph /  16.7km/h 62% 0in /  0.0mm
23:44 70 °F /  21.1 °C 56.5 °F /  13.6 °C 30.1in /  1020.0hPa Sur 5.7mph /  9.1km/h 10.4mph /  16.7km/h 62% 0in /  0.0mm
23:49 70 °F /  21.1 °C 56.5 °F /  13.6 °C 30.1in /  1020.0hPa Sur 5.9mph /  9.5km/h 8mph /  12.9km/h 62% 0in /  0.0mm
23:54 70 °F /  21.1 °C 56.5 °F /  13.6 °C 30.1in /  1020.1hPa Sur 5.3mph /  8.6km/h 7mph /  11.3km/h 62% 0in /  0.0mm
23:59 70 °F /  21.1 °C 56.3 °F /  13.5 °C 30.1in /  1020.1hPa SSO 5.2mph /  8.4km/h 7mph /  11.3km/h 62% 0in /  0.0mm
Murcia-Puente Tocinos, España
Compliments of Weather Underground - 3 mb

La estación de MeteoMurcia.com, publica sus datos en los siguientes proyectos:

Weather Underground PWS IMURCIAP2 Meteoclimatic www.awekas.at

W3Counter
Web Analytics